Vancouver, Washington
Current Conditions -  °F | °C
As of 8:53 PM on Sunday 19 Oct 2014 (Local Time) from KVUO Reporting Station
Broken Clouds Broken Clouds  
Wind Chill: 60°   Ceiling: 4500
Heat Index: 60°   Visibility: 10mi
Dew Point: 55°   Wind: 0mph
Humidity: 83%   Direction: NA
Pressure: 29.69"   Gusts: NA
Location:  45.63°N, 122.67°W
Report Text: KVUO 200353Z AUTO 00000KT 10SM BKN045 16/13 A2969 RMK AO2 SLP055 T01560128 $
Loading
Personal Weather Stations






























Interactive Weather Map
Tropical Storm Tracking
New forecast layout! Learn more

10-Day Weather Forecast

Advertisements
Track Severe Weather on mobile